Terminal Aerodrome Forecast
Issued by NWS Paducah, KY

Home | Current Version | Previous Version | Text Only | Print | Product List | Glossary On
Versions: 1 2 3 4 5 6 7 8 9 10 11 12 13 14 15 16 17 18 19 20 21 22 23 24
000
FTUS43 KPAH 252025 AAA
TAFEVV
TAF AMD
KEVV 252025Z 2520/2618 18010KT P6SM BKN020 BKN040
     FM260000 18008KT P6SM BKN020
     FM261000 18008KT 6SM -SHRA BR BKN010
     FM261600 20012G18KT 6SM -SHRA BR OVC020=

USA.gov is the U.S. government's official web portal to all federal, state and local government web resources and services.